Time;durP1;ratioP1;P1;durP2;ratioP2;P2;SDS_P1;SDS_P2;PMS_P1;PMS_P2;Temp;Humidity;BMP_temperature;BMP_pressure;BME280_temperature;BME280_humidity;BME280_pressure;Samples;Min_cycle;Max_cycle;Signal;HPM_P1;HPM_P2
2024/04/24 00:01:35;;;;;;;4.20;0.60;;;6.00;99.90;;;;;;5377668;26;20005;-75
2024/04/24 00:04:02;;;;;;;2.97;0.30;;;6.00;99.90;;;;;;5411941;26;21378;-74
2024/04/24 00:06:28;;;;;;;2.80;0.40;;;6.00;99.90;;;;;;5392388;26;20018;-73
2024/04/24 00:08:55;;;;;;;2.70;0.20;;;5.90;99.90;;;;;;5430710;26;20002;-74
2024/04/24 00:11:23;;;;;;;1.42;0.17;;;6.00;99.90;;;;;;5412301;26;20006;-75
2024/04/24 00:13:50;;;;;;;1.47;0.20;;;6.00;99.90;;;;;;5409499;26;20010;-75
2024/04/24 00:16:16;;;;;;;2.43;0.30;;;6.00;99.90;;;;;;5412080;26;20017;-74
2024/04/24 00:18:42;;;;;;;2.28;0.30;;;6.00;99.90;;;;;;5415048;26;19999;-74
2024/04/24 00:21:11;;;;;;;2.58;0.40;;;5.90;99.90;;;;;;5426283;26;20006;-74
2024/04/24 00:23:37;;;;;;;1.40;0.20;;;5.90;99.90;;;;;;5429681;26;20002;-74
2024/04/24 00:26:04;;;;;;;2.47;0.28;;;5.90;99.90;;;;;;5385905;26;20025;-75
2024/04/24 00:28:30;;;;;;;2.20;0.30;;;5.90;99.90;;;;;;5414487;26;20012;-73
2024/04/24 00:31:00;;;;;;;2.60;0.30;;;5.90;99.90;;;;;;5412262;26;20006;-75
2024/04/24 00:33:27;;;;;;;2.28;0.30;;;5.80;99.90;;;;;;5414106;26;20006;-73
2024/04/24 00:35:53;;;;;;;1.73;0.20;;;5.80;99.90;;;;;;5366587;26;20002;-73
2024/04/24 00:38:19;;;;;;;3.40;0.40;;;5.80;99.90;;;;;;5428215;26;19995;-74
2024/04/24 00:40:46;;;;;;;2.80;0.30;;;5.80;99.90;;;;;;5416959;26;20360;-73
2024/04/24 00:43:13;;;;;;;2.95;0.30;;;5.80;99.90;;;;;;5415528;26;20010;-74
2024/04/24 00:45:39;;;;;;;3.65;0.28;;;5.80;99.90;;;;;;5381541;26;20888;-74
2024/04/24 00:48:07;;;;;;;3.75;0.30;;;5.80;99.90;;;;;;5351904;26;20441;-74
2024/04/24 00:50:34;;;;;;;2.63;0.30;;;5.80;99.90;;;;;;5486317;25;20040;-73
2024/04/24 00:53:02;;;;;;;2.63;0.40;;;5.80;99.90;;;;;;5479385;25;20117;-73
2024/04/24 00:55:29;;;;;;;3.45;0.80;;;5.80;99.90;;;;;;5410971;26;22438;-74
2024/04/24 00:57:56;;;;;;;2.67;0.30;;;5.80;99.90;;;;;;5437318;26;20017;-74
2024/04/24 01:00:22;;;;;;;5.53;0.80;;;5.70;99.90;;;;;;5412261;26;20003;-73
2024/04/24 01:02:48;;;;;;;3.78;0.40;;;5.70;99.90;;;;;;5396930;26;22131;-73
2024/04/24 01:05:15;;;;;;;3.50;0.50;;;5.70;99.90;;;;;;5400386;26;20017;-73
2024/04/24 01:07:41;;;;;;;5.53;0.50;;;5.60;99.90;;;;;;5414678;26;20009;-74
2024/04/24 01:10:17;;;;;;;3.35;0.22;;;5.60;99.90;;;;;;5384147;26;20010;-74
2024/04/24 01:12:48;;;;;;;2.60;0.35;;;5.60;99.90;;;;;;5414524;26;20002;-73
2024/04/24 01:15:16;;;;;;;4.13;0.40;;;5.60;99.90;;;;;;5386238;26;20005;-74
2024/04/24 01:17:46;;;;;;;6.32;0.50;;;5.60;99.90;;;;;;5372633;26;20013;-73
2024/04/24 01:20:19;;;;;;;3.83;0.40;;;5.60;99.90;;;;;;5399304;26;20013;-73
2024/04/24 01:22:58;;;;;;;4.05;0.40;;;5.60;99.90;;;;;;5412980;26;20010;-74
2024/04/24 01:25:38;;;;;;;5.90;0.40;;;5.60;99.90;;;;;;5442707;25;20264;-74
2024/04/24 01:28:05;;;;;;;3.83;0.30;;;5.50;99.90;;;;;;5384492;26;20724;-74
2024/04/24 01:30:31;;;;;;;5.40;0.40;;;5.50;99.90;;;;;;5383549;26;20010;-73
2024/04/24 01:32:57;;;;;;;3.20;0.65;;;5.50;99.90;;;;;;5428219;26;20002;-74
2024/04/24 01:35:24;;;;;;;5.18;0.30;;;5.50;99.90;;;;;;5429203;26;19994;-74
2024/04/24 01:37:51;;;;;;;4.50;0.40;;;5.50;99.90;;;;;;5389832;26;20026;-73
2024/04/24 01:40:17;;;;;;;5.00;0.43;;;5.50;99.90;;;;;;5438693;25;19994;-74
2024/04/24 01:42:44;;;;;;;5.63;0.70;;;5.50;99.90;;;;;;5413158;26;19994;-73
2024/04/24 01:45:10;;;;;;;3.10;0.40;;;5.50;99.90;;;;;;5417646;26;21978;-73
2024/04/24 01:47:36;;;;;;;7.57;0.70;;;5.50;99.90;;;;;;5401919;26;20002;-74
2024/04/24 01:50:03;;;;;;;5.65;0.95;;;5.40;99.90;;;;;;5416110;26;20006;-73
2024/04/24 01:52:29;;;;;;;4.82;0.50;;;5.40;99.90;;;;;;5358617;26;20479;-73
2024/04/24 01:54:56;;;;;;;6.97;0.75;;;5.40;99.90;;;;;;5381306;26;20484;-72
2024/04/24 01:57:23;;;;;;;6.40;0.55;;;5.40;99.90;;;;;;5411152;26;20484;-74
2024/04/24 01:59:50;;;;;;;2.87;0.43;;;5.40;99.90;;;;;;5428682;26;19999;-74
2024/04/24 02:02:16;;;;;;;6.35;0.40;;;5.40;99.90;;;;;;5395182;26;20009;-73
2024/04/24 02:04:42;;;;;;;5.28;0.40;;;5.40;99.90;;;;;;5410367;26;20006;-73
2024/04/24 02:07:08;;;;;;;4.05;0.30;;;5.40;99.90;;;;;;5411551;26;20002;-73
2024/04/24 02:09:35;;;;;;;3.58;0.40;;;5.40;99.90;;;;;;5414756;26;19994;-73
2024/04/24 02:12:01;;;;;;;4.25;0.38;;;5.40;99.90;;;;;;5417760;26;20024;-74
2024/04/24 02:14:28;;;;;;;4.53;0.40;;;5.40;99.90;;;;;;5428658;26;21380;-73
2024/04/24 02:16:54;;;;;;;3.88;0.40;;;5.40;99.90;;;;;;5387715;26;21155;-73
2024/04/24 02:19:21;;;;;;;3.53;0.50;;;5.40;99.90;;;;;;5409030;26;20010;-73
2024/04/24 02:21:48;;;;;;;5.57;0.40;;;5.30;99.90;;;;;;5382016;26;20013;-74
2024/04/24 02:25:33;;;;;;;5.25;0.45;;;5.30;99.90;;;;;;5380902;26;21644;-74
2024/04/24 02:27:01;;;;;;;3.93;0.27;;;5.30;99.90;;;;;;5427730;26;20010;-74
2024/04/24 02:29:27;;;;;;;4.30;0.70;;;5.30;99.90;;;;;;5396326;26;20021;-73
2024/04/24 02:31:53;;;;;;;5.68;0.60;;;5.20;99.90;;;;;;5416150;26;20013;-73
2024/04/24 02:34:20;;;;;;;6.13;0.50;;;5.20;99.90;;;;;;5384644;26;20006;-73
2024/04/24 02:36:46;;;;;;;5.25;0.93;;;5.10;99.90;;;;;;5380337;26;20025;-74
2024/04/24 02:39:12;;;;;;;5.65;0.40;;;5.00;99.90;;;;;;5385841;26;20002;-74
2024/04/24 02:41:39;;;;;;;2.58;0.32;;;4.90;99.90;;;;;;5402554;26;20519;-73
2024/04/24 02:44:05;;;;;;;3.50;0.40;;;4.80;99.90;;;;;;5418322;26;19994;-73
2024/04/24 02:46:32;;;;;;;3.87;0.40;;;4.70;99.90;;;;;;5410473;26;21210;-73
2024/04/24 02:48:58;;;;;;;2.80;0.30;;;4.70;99.90;;;;;;5380725;26;20002;-73
2024/04/24 02:51:24;;;;;;;3.13;0.50;;;4.70;99.90;;;;;;5378786;26;20441;-73
2024/04/24 02:53:51;;;;;;;3.60;0.30;;;4.70;99.90;;;;;;5423084;26;20364;-73
2024/04/24 02:56:17;;;;;;;2.73;0.40;;;4.70;99.90;;;;;;5430609;26;19998;-74
2024/04/24 02:58:43;;;;;;;2.60;0.20;;;4.70;99.90;;;;;;5409715;26;20016;-74
2024/04/24 03:01:15;;;;;;;4.07;0.30;;;4.70;99.90;;;;;;5380554;26;20013;-74
2024/04/24 03:03:43;;;;;;;5.20;0.50;;;4.60;99.90;;;;;;5413252;26;20318;-72
2024/04/24 03:06:09;;;;;;;5.78;0.90;;;4.60;99.90;;;;;;5356295;26;20002;-74
2024/04/24 03:08:35;;;;;;;2.33;0.30;;;4.50;99.90;;;;;;5372466;26;20014;-73
2024/04/24 03:11:02;;;;;;;5.13;0.55;;;4.40;99.90;;;;;;5385467;26;20010;-74
2024/04/24 03:13:28;;;;;;;2.78;0.40;;;4.40;99.90;;;;;;5382107;26;20006;-74
2024/04/24 03:15:55;;;;;;;4.82;0.60;;;4.40;99.90;;;;;;5378632;26;20849;-73
2024/04/24 03:18:21;;;;;;;6.63;0.50;;;4.30;99.90;;;;;;5382623;26;20006;-72
2024/04/24 03:20:47;;;;;;;4.40;0.63;;;4.30;99.90;;;;;;5391635;26;20454;-72
2024/04/24 03:23:13;;;;;;;3.17;0.40;;;4.20;99.90;;;;;;5427534;26;20008;-74
2024/04/24 03:25:41;;;;;;;3.03;0.40;;;4.20;99.90;;;;;;5384568;26;20002;-73
2024/04/24 03:28:07;;;;;;;5.77;0.60;;;4.10;99.90;;;;;;5414241;26;20005;-74
2024/04/24 03:30:33;;;;;;;6.00;0.87;;;4.10;99.90;;;;;;5407441;26;20014;-73
2024/04/24 03:33:01;;;;;;;5.80;0.70;;;4.10;99.90;;;;;;5414754;26;20381;-72
2024/04/24 03:35:27;;;;;;;2.23;0.43;;;4.00;99.90;;;;;;5400922;26;20014;-72
2024/04/24 03:37:54;;;;;;;4.53;0.50;;;4.00;99.90;;;;;;5427845;26;20509;-73
2024/04/24 03:40:20;;;;;;;4.53;0.43;;;4.00;99.90;;;;;;5410628;26;20027;-73
2024/04/24 03:42:46;;;;;;;8.20;0.93;;;4.00;99.90;;;;;;5383502;26;20006;-74
2024/04/24 03:45:13;;;;;;;7.67;0.80;;;4.10;99.90;;;;;;5382893;26;20010;-73
2024/04/24 03:47:39;;;;;;;7.20;0.60;;;4.10;99.90;;;;;;5413869;26;20016;-74
2024/04/24 03:50:06;;;;;;;3.63;0.40;;;4.10;99.90;;;;;;5389848;26;20013;-72
2024/04/24 03:52:32;;;;;;;10.20;0.80;;;4.10;99.90;;;;;;5428803;26;20012;-74
2024/04/24 03:54:59;;;;;;;12.77;1.17;;;4.10;99.90;;;;;;5353069;26;20048;-74
2024/04/24 03:57:25;;;;;;;7.30;0.67;;;4.00;99.90;;;;;;5412904;26;20480;-74
2024/04/24 03:59:51;;;;;;;5.60;0.67;;;4.00;99.90;;;;;;5411312;26;20002;-73
2024/04/24 04:02:18;;;;;;;3.17;0.50;;;4.00;99.90;;;;;;5392637;26;20348;-73
2024/04/24 04:04:44;;;;;;;3.10;0.40;;;3.90;99.90;;;;;;5429715;26;20017;-73
2024/04/24 04:07:11;;;;;;;2.77;0.60;;;3.90;99.90;;;;;;5405515;26;20006;-74
2024/04/24 04:09:38;;;;;;;5.10;0.57;;;3.90;99.90;;;;;;5381082;26;20003;-73
2024/04/24 04:12:07;;;;;;;4.97;0.43;;;3.90;99.90;;;;;;5407884;26;20451;-74
2024/04/24 04:14:36;;;;;;;4.03;0.57;;;3.80;99.90;;;;;;5380245;26;20013;-74
2024/04/24 04:17:02;;;;;;;7.33;0.60;;;3.80;99.90;;;;;;5386007;26;20009;-73
2024/04/24 04:19:29;;;;;;;6.77;0.60;;;3.70;99.90;;;;;;5427509;26;20019;-73
2024/04/24 04:21:55;;;;;;;6.53;1.03;;;3.70;99.90;;;;;;5415348;26;20006;-73
2024/04/24 04:24:21;;;;;;;1.93;0.30;;;3.70;99.90;;;;;;5405873;26;20033;-74
2024/04/24 04:26:48;;;;;;;6.73;2.13;;;3.70;99.90;;;;;;5417551;26;20006;-74
2024/04/24 04:29:14;;;;;;;4.13;0.50;;;3.70;99.90;;;;;;5376885;26;20010;-74
2024/04/24 04:31:41;;;;;;;1.50;0.30;;;3.70;99.90;;;;;;5425816;26;21303;-74
2024/04/24 04:34:08;;;;;;;4.23;0.40;;;3.70;99.90;;;;;;5388962;26;20006;-74
2024/04/24 04:36:34;;;;;;;3.70;0.50;;;3.70;99.90;;;;;;5351320;26;21879;-74
2024/04/24 04:39:00;;;;;;;7.00;0.90;;;3.60;99.90;;;;;;5384694;26;20387;-74
2024/04/24 04:41:27;;;;;;;5.63;0.40;;;3.70;99.90;;;;;;5406147;26;20017;-74
2024/04/24 04:43:55;;;;;;;4.03;0.43;;;3.70;99.90;;;;;;5422393;26;20337;-73
2024/04/24 04:46:22;;;;;;;4.60;0.40;;;3.70;99.90;;;;;;5396734;26;20036;-74
2024/04/24 04:48:48;;;;;;;4.63;0.50;;;3.80;99.90;;;;;;5383996;26;20002;-74
2024/04/24 04:51:15;;;;;;;4.10;0.40;;;3.90;99.90;;;;;;5410157;26;20365;-73
2024/04/24 04:53:42;;;;;;;2.27;0.47;;;3.90;99.90;;;;;;5381245;26;20002;-73
2024/04/24 04:56:08;;;;;;;5.13;0.40;;;4.00;99.90;;;;;;5415567;26;20002;-73
2024/04/24 04:58:34;;;;;;;4.37;0.47;;;4.10;99.90;;;;;;5426066;26;20013;-73
2024/04/24 05:01:01;;;;;;;3.22;0.40;;;4.20;99.90;;;;;;5423208;26;20002;-74
2024/04/24 05:03:27;;;;;;;7.23;0.50;;;4.30;99.90;;;;;;5414592;26;20002;-74
2024/04/24 05:05:53;;;;;;;6.47;0.75;;;4.40;99.90;;;;;;5415211;26;20006;-74
2024/04/24 05:08:20;;;;;;;4.90;0.50;;;4.40;99.90;;;;;;5384122;26;20018;-73
2024/04/24 05:10:46;;;;;;;3.83;0.40;;;4.50;99.90;;;;;;5394220;26;20017;-74
2024/04/24 05:13:12;;;;;;;4.97;0.40;;;4.50;99.90;;;;;;5431959;26;20024;-74
2024/04/24 05:15:39;;;;;;;5.85;0.55;;;4.60;99.90;;;;;;5384196;26;20072;-73
2024/04/24 05:18:06;;;;;;;2.07;0.30;;;4.60;99.90;;;;;;5410466;26;20084;-74
2024/04/24 05:20:32;;;;;;;7.50;0.60;;;4.70;99.90;;;;;;5411496;26;20006;-74
2024/04/24 05:23:00;;;;;;;4.30;0.50;;;4.80;99.90;;;;;;5423044;26;20002;-75
2024/04/24 05:25:28;;;;;;;3.27;0.30;;;4.80;99.90;;;;;;5434507;26;20013;-74
2024/04/24 05:30:41;;;;;;;1.30;0.30;;;5.00;99.90;;;;;;5395073;26;21374;-73
2024/04/24 05:33:08;;;;;;;2.00;0.30;;;5.10;99.90;;;;;;5385396;26;20024;-75
2024/04/24 05:35:34;;;;;;;4.43;0.40;;;5.10;99.90;;;;;;5416963;26;20021;-73
2024/04/24 05:38:00;;;;;;;1.70;0.30;;;5.20;99.90;;;;;;5399604;26;20016;-74
2024/04/24 05:40:26;;;;;;;3.58;0.57;;;5.20;99.90;;;;;;5399716;26;20017;-75
2024/04/24 05:42:53;;;;;;;3.55;0.50;;;5.20;99.90;;;;;;5414233;26;20021;-75
2024/04/24 05:45:19;;;;;;;5.32;0.40;;;5.20;99.90;;;;;;5383008;26;20063;-73
2024/04/24 05:47:46;;;;;;;4.18;0.40;;;5.30;99.90;;;;;;5355807;26;20013;-73
2024/04/24 05:50:12;;;;;;;2.78;0.40;;;5.40;99.90;;;;;;5410623;26;21636;-74
2024/04/24 05:52:38;;;;;;;3.65;0.50;;;5.50;99.90;;;;;;5443645;26;20002;-74
2024/04/24 05:55:05;;;;;;;3.65;0.57;;;5.60;99.90;;;;;;5426714;26;20009;-74
2024/04/24 05:57:32;;;;;;;3.78;0.38;;;5.60;99.90;;;;;;5426009;26;21107;-74
2024/04/24 05:59:58;;;;;;;4.38;0.85;;;5.70;99.90;;;;;;5380082;26;20002;-74
2024/04/24 06:02:24;;;;;;;8.40;0.85;;;5.70;99.90;;;;;;5354591;26;21435;-74
2024/04/24 06:04:51;;;;;;;4.20;0.60;;;5.70;99.90;;;;;;5354618;26;20425;-74
2024/04/24 06:07:17;;;;;;;3.72;0.45;;;5.60;99.90;;;;;;5394290;26;20084;-75
2024/04/24 06:09:44;;;;;;;4.07;0.70;;;5.60;99.90;;;;;;5395636;26;20788;-77
2024/04/24 06:12:12;;;;;;;3.90;0.57;;;5.60;99.90;;;;;;5465430;25;20013;-76
2024/04/24 06:14:39;;;;;;;5.13;0.50;;;5.60;99.90;;;;;;5411352;26;20017;-75
2024/04/24 06:17:05;;;;;;;6.70;0.60;;;5.60;99.90;;;;;;5409500;26;20409;-74
2024/04/24 06:19:33;;;;;;;4.53;0.40;;;5.60;99.90;;;;;;5377600;26;20012;-75
2024/04/24 06:21:59;;;;;;;5.40;0.80;;;5.70;99.90;;;;;;5400221;26;20021;-73
2024/04/24 06:24:25;;;;;;;9.73;1.25;;;5.80;99.90;;;;;;5426202;26;20018;-73
2024/04/24 06:26:52;;;;;;;6.35;0.50;;;5.80;99.90;;;;;;5385957;26;20025;-76
2024/04/24 06:29:18;;;;;;;3.78;0.47;;;5.90;99.90;;;;;;5388712;26;20013;-74
2024/04/24 06:31:45;;;;;;;4.85;0.70;;;5.90;99.90;;;;;;5411115;26;20015;-74
2024/04/24 06:34:11;;;;;;;8.45;1.20;;;5.90;99.90;;;;;;5412705;26;20344;-74
2024/04/24 06:36:37;;;;;;;10.23;1.13;;;5.90;99.90;;;;;;5402748;26;20010;-74
2024/04/24 06:39:04;;;;;;;6.25;0.60;;;5.90;99.90;;;;;;5393603;26;19999;-74
2024/04/24 06:41:31;;;;;;;5.68;0.60;;;5.90;99.90;;;;;;5407557;26;20013;-75
2024/04/24 06:43:57;;;;;;;10.20;0.60;;;5.90;99.90;;;;;;5352308;26;21743;-74
2024/04/24 06:46:24;;;;;;;8.27;0.63;;;6.00;99.90;;;;;;5381024;26;20891;-75
2024/04/24 06:48:50;;;;;;;7.22;0.50;;;6.00;99.90;;;;;;5387467;26;20006;-74
2024/04/24 06:51:17;;;;;;;7.35;0.95;;;6.00;99.90;;;;;;5370891;26;20017;-73
2024/04/24 06:53:43;;;;;;;9.10;0.88;;;6.10;99.90;;;;;;5414537;26;20017;-74
2024/04/24 06:56:09;;;;;;;3.78;0.60;;;6.20;99.90;;;;;;5407411;26;19998;-74
2024/04/24 06:58:37;;;;;;;6.68;0.82;;;6.40;99.90;;;;;;5383075;26;20025;-74
2024/04/24 07:01:04;;;;;;;8.15;0.70;;;6.70;99.90;;;;;;5411390;26;20013;-74
2024/04/24 07:03:31;;;;;;;6.88;0.60;;;6.80;99.90;;;;;;5450332;26;20021;-75
2024/04/24 07:05:58;;;;;;;6.60;0.75;;;6.90;99.90;;;;;;5403282;26;20083;-73
2024/04/24 07:08:24;;;;;;;10.57;0.90;;;6.90;99.90;;;;;;5354892;26;20473;-74
2024/04/24 07:10:51;;;;;;;13.13;1.23;;;6.90;99.90;;;;;;5380292;26;20010;-75
2024/04/24 07:13:17;;;;;;;9.60;1.38;;;7.00;99.90;;;;;;5352286;26;20848;-74
2024/04/24 07:15:44;;;;;;;7.53;0.80;;;7.10;99.90;;;;;;5360321;26;20012;-74
2024/04/24 07:18:10;;;;;;;7.97;0.63;;;7.30;99.90;;;;;;5429499;26;20002;-73
2024/04/24 07:20:36;;;;;;;9.75;0.85;;;7.30;99.90;;;;;;5391884;26;21511;-74
2024/04/24 07:23:03;;;;;;;7.68;0.80;;;7.30;99.90;;;;;;5411176;26;21855;-75
2024/04/24 07:25:30;;;;;;;9.60;1.20;;;7.30;99.90;;;;;;5413202;26;20016;-76
2024/04/24 07:27:56;;;;;;;11.10;1.15;;;7.40;99.90;;;;;;5409744;26;20457;-74
2024/04/24 07:30:23;;;;;;;13.82;1.42;;;7.30;99.90;;;;;;5354135;26;20002;-74
2024/04/24 07:32:49;;;;;;;9.85;1.48;;;7.30;99.90;;;;;;5425682;26;22561;-74
2024/04/24 07:35:15;;;;;;;6.97;0.70;;;7.30;99.90;;;;;;5394226;26;20029;-74
2024/04/24 07:37:42;;;;;;;12.98;1.60;;;7.30;99.90;;;;;;5380214;26;20449;-74
2024/04/24 07:40:08;;;;;;;10.75;1.00;;;7.40;99.90;;;;;;5409367;26;20359;-74
2024/04/24 07:42:35;;;;;;;11.30;1.00;;;7.50;99.90;;;;;;5353613;26;20005;-74
2024/04/24 07:45:02;;;;;;;12.07;1.40;;;7.80;99.90;;;;;;5478871;25;20021;-74
2024/04/24 07:47:29;;;;;;;13.10;0.90;;;8.00;99.90;;;;;;5373130;26;20020;-74
2024/04/24 07:49:55;;;;;;;6.57;0.80;;;8.20;99.90;;;;;;5378797;26;20005;-76
2024/04/24 07:52:22;;;;;;;9.80;1.20;;;8.20;99.90;;;;;;5413105;26;20394;-75
2024/04/24 07:54:48;;;;;;;7.55;1.10;;;8.20;99.90;;;;;;5378636;26;20035;-77
2024/04/24 07:57:14;;;;;;;7.95;0.90;;;8.00;99.90;;;;;;5419190;26;20814;-74
2024/04/24 07:59:41;;;;;;;8.52;0.60;;;7.60;99.90;;;;;;5401890;26;20014;-75
2024/04/24 08:02:07;;;;;;;8.00;0.68;;;7.30;99.90;;;;;;5416266;26;20475;-76
2024/04/24 08:04:33;;;;;;;6.00;0.45;;;7.00;99.90;;;;;;5384560;26;20002;-76
2024/04/24 08:07:00;;;;;;;8.23;0.70;;;6.70;99.90;;;;;;5409381;26;20021;-75
2024/04/24 08:09:26;;;;;;;5.22;0.60;;;6.60;99.90;;;;;;5381283;26;19999;-74
2024/04/24 08:11:53;;;;;;;7.53;0.73;;;6.60;99.90;;;;;;5369927;26;21116;-75
2024/04/24 08:14:19;;;;;;;6.35;0.85;;;6.60;99.90;;;;;;5390286;26;20002;-75
2024/04/24 08:16:45;;;;;;;3.75;0.63;;;6.60;99.90;;;;;;5379914;26;20013;-75
2024/04/24 08:19:12;;;;;;;3.28;0.40;;;6.60;99.90;;;;;;5408648;26;20006;-75
2024/04/24 08:21:38;;;;;;;3.00;0.40;;;6.60;99.90;;;;;;5407068;26;20582;-75
2024/04/24 08:24:05;;;;;;;2.33;0.25;;;6.50;99.90;;;;;;5396374;26;19998;-76
2024/04/24 08:26:31;;;;;;;1.13;0.20;;;6.50;99.90;;;;;;5420401;26;20008;-76
2024/04/24 08:28:57;;;;;;;2.20;0.25;;;6.40;99.90;;;;;;5377997;26;20487;-77
2024/04/24 08:31:24;;;;;;;2.45;0.25;;;6.30;99.90;;;;;;5408650;26;20557;-75
2024/04/24 08:33:50;;;;;;;0.93;0.20;;;6.10;99.90;;;;;;5350634;26;20037;-75
2024/04/24 08:36:17;;;;;;;1.65;0.25;;;5.90;99.90;;;;;;5427801;26;20021;-75
2024/04/24 08:38:43;;;;;;;1.30;0.20;;;5.80;99.90;;;;;;5404092;26;19998;-74
2024/04/24 08:41:10;;;;;;;0.40;0.10;;;5.90;99.90;;;;;;5415945;26;20044;-75
2024/04/24 08:43:39;;;;;;;0.70;0.10;;;5.90;99.90;;;;;;5385345;26;20595;-76
2024/04/24 08:46:07;;;;;;;2.53;0.20;;;6.00;99.90;;;;;;5437343;26;20661;-76
2024/04/24 08:48:40;;;;;;;1.27;0.30;;;6.00;99.90;;;;;;5437747;25;20013;-76
2024/04/24 08:51:09;;;;;;;2.70;0.20;;;5.90;99.90;;;;;;5400492;26;20006;-75
2024/04/24 08:53:42;;;;;;;2.30;0.20;;;5.90;99.90;;;;;;5424032;26;20017;-75
2024/04/24 08:56:12;;;;;;;2.55;0.20;;;6.00;99.90;;;;;;5384472;26;20021;-75
2024/04/24 08:58:39;;;;;;;2.88;0.38;;;6.10;99.90;;;;;;5445414;26;20006;-75
2024/04/24 09:01:15;;;;;;;1.27;0.20;;;6.30;99.90;;;;;;5414513;26;19999;-75
2024/04/24 09:03:48;;;;;;;0.88;0.25;;;6.50;99.90;;;;;;5366924;26;19998;-75
2024/04/24 09:06:15;;;;;;;2.10;0.60;;;6.80;99.90;;;;;;5399114;26;20819;-75
2024/04/24 09:08:43;;;;;;;1.20;0.20;;;7.10;99.90;;;;;;5421737;26;20013;-75
2024/04/24 09:11:10;;;;;;;3.85;0.68;;;7.30;99.90;;;;;;5411653;26;20578;-76
2024/04/24 09:13:38;;;;;;;5.60;0.63;;;7.40;99.90;;;;;;5411331;26;20672;-75
2024/04/24 09:16:07;;;;;;;3.97;0.50;;;7.50;99.90;;;;;;5413443;26;20021;-76
2024/04/24 09:18:33;;;;;;;4.53;0.55;;;7.70;99.90;;;;;;5411664;26;20013;-76
2024/04/24 09:21:01;;;;;;;2.58;0.30;;;7.80;99.90;;;;;;5398302;26;20009;-76
2024/04/24 09:23:27;;;;;;;3.30;0.20;;;7.70;99.90;;;;;;5422582;26;20028;-76
2024/04/24 09:25:55;;;;;;;1.92;0.30;;;7.40;99.90;;;;;;5412986;26;20013;-77
2024/04/24 09:28:23;;;;;;;2.53;0.30;;;7.30;99.90;;;;;;5417396;26;20006;-76
2024/04/24 09:30:53;;;;;;;1.65;0.17;;;7.00;99.90;;;;;;5354260;26;20029;-77
2024/04/24 09:33:20;;;;;;;1.75;0.20;;;6.90;99.90;;;;;;5428890;26;20010;-77
2024/04/24 09:35:47;;;;;;;1.77;0.30;;;6.80;99.90;;;;;;5400504;26;20476;-76
2024/04/24 09:38:13;;;;;;;1.35;0.20;;;6.70;99.90;;;;;;5414758;26;21148;-77
2024/04/24 09:40:40;;;;;;;1.08;0.20;;;6.60;99.90;;;;;;5440059;26;20010;-77
2024/04/24 09:43:07;;;;;;;2.33;0.20;;;6.70;99.90;;;;;;5386639;26;20009;-77
2024/04/24 09:45:33;;;;;;;0.52;0.20;;;6.90;99.90;;;;;;5386611;26;20021;-76
2024/04/24 09:48:00;;;;;;;1.70;0.20;;;7.10;99.90;;;;;;5397358;26;20001;-76
2024/04/24 09:50:26;;;;;;;0.85;0.17;;;7.20;99.90;;;;;;5419165;26;20681;-76
2024/04/24 09:52:53;;;;;;;5.53;0.30;;;7.30;99.90;;;;;;5384669;26;22500;-76
2024/04/24 09:55:25;;;;;;;2.00;0.30;;;7.50;99.90;;;;;;5382682;26;20021;-76
2024/04/24 09:57:56;;;;;;;2.78;0.38;;;7.70;99.90;;;;;;5385302;26;19994;-75
2024/04/24 10:00:22;;;;;;;3.40;0.40;;;7.90;99.90;;;;;;5370848;26;20006;-74
2024/04/24 10:02:52;;;;;;;3.30;0.40;;;8.10;99.90;;;;;;5428669;26;20021;-75
2024/04/24 10:05:20;;;;;;;2.92;0.32;;;8.40;99.90;;;;;;5383806;26;19998;-74
2024/04/24 10:08:03;;;;;;;3.92;0.30;;;8.70;99.90;;;;;;5411087;26;20021;-74
2024/04/24 10:10:35;;;;;;;3.95;0.50;;;9.10;99.90;;;;;;5447475;26;20013;-74
2024/04/24 10:13:06;;;;;;;5.00;0.40;;;9.40;99.90;;;;;;5423446;26;20017;-75
2024/04/24 10:15:40;;;;;;;4.30;0.40;;;9.40;99.90;;;;;;5428343;26;20013;-76
2024/04/24 10:18:08;;;;;;;4.03;0.60;;;9.30;99.90;;;;;;5397021;26;20002;-77
2024/04/24 10:20:40;;;;;;;4.22;0.43;;;9.40;99.90;;;;;;5412372;26;20016;-76
2024/04/24 10:23:10;;;;;;;5.30;0.50;;;9.30;99.90;;;;;;5443707;26;21470;-75
2024/04/24 10:25:38;;;;;;;4.07;0.63;;;9.30;99.90;;;;;;5396706;26;19998;-76
2024/04/24 10:28:06;;;;;;;3.30;0.52;;;9.10;99.90;;;;;;5420793;26;21747;-76
2024/04/24 10:30:37;;;;;;;3.03;0.50;;;8.80;99.90;;;;;;5410268;26;19998;-77
2024/04/24 10:33:05;;;;;;;6.10;1.13;;;8.50;99.90;;;;;;5357855;26;20006;-77
2024/04/24 10:35:31;;;;;;;7.38;0.50;;;8.00;99.90;;;;;;5385926;26;20372;-77
2024/04/24 10:37:58;;;;;;;4.95;0.50;;;7.60;99.90;;;;;;5427790;26;20638;-77
2024/04/24 10:40:28;;;;;;;5.07;0.55;;;7.30;99.90;;;;;;5400319;26;20461;-77
2024/04/24 10:42:59;;;;;;;6.25;0.50;;;7.10;99.90;;;;;;5415258;26;20006;-76
2024/04/24 10:45:32;;;;;;;5.65;0.65;;;7.10;99.90;;;;;;5412309;26;20865;-76
2024/04/24 10:47:59;;;;;;;5.63;0.50;;;7.10;99.90;;;;;;5382879;26;21683;-75
2024/04/24 10:50:26;;;;;;;3.42;0.40;;;7.20;99.90;;;;;;5422187;26;20364;-76
2024/04/24 10:52:55;;;;;;;5.53;0.60;;;7.30;99.90;;;;;;5429441;26;20460;-75
2024/04/24 10:55:21;;;;;;;5.28;0.60;;;7.40;99.90;;;;;;5436708;25;20016;-75
2024/04/24 10:57:53;;;;;;;3.35;0.50;;;7.50;99.90;;;;;;5386062;26;20010;-75
2024/04/24 11:00:24;;;;;;;4.15;0.70;;;7.80;99.90;;;;;;5352150;26;20006;-75
2024/04/24 11:02:52;;;;;;;6.85;0.90;;;8.30;99.90;;;;;;5410903;26;21356;-74
2024/04/24 11:05:21;;;;;;;10.60;0.60;;;8.80;99.90;;;;;;5429582;26;21411;-73
2024/04/24 11:08:00;;;;;;;6.15;0.60;;;9.40;99.90;;;;;;5418994;26;20012;-73
2024/04/24 11:10:27;;;;;;;5.65;1.17;;;9.80;99.90;;;;;;5407730;26;22194;-77
2024/04/24 11:12:54;;;;;;;9.95;0.95;;;10.30;99.90;;;;;;5411015;26;20806;-74
2024/04/24 11:15:25;;;;;;;9.20;0.73;;;10.90;99.90;;;;;;5361429;26;20021;-75
2024/04/24 11:17:51;;;;;;;3.65;0.60;;;11.40;99.90;;;;;;5401530;26;20420;-75
2024/04/24 11:20:19;;;;;;;7.38;0.88;;;11.90;99.90;;;;;;5386121;26;20002;-75
2024/04/24 11:22:45;;;;;;;6.63;0.90;;;12.40;99.90;;;;;;5381583;26;20017;-75
2024/04/24 11:25:13;;;;;;;8.63;0.90;;;12.50;99.90;;;;;;5410094;26;20655;-75
2024/04/24 11:27:39;;;;;;;5.32;0.80;;;12.20;99.90;;;;;;5413911;26;20002;-77
2024/04/24 11:30:17;;;;;;;6.70;1.02;;;11.60;99.90;;;;;;5387144;26;20006;-75
2024/04/24 11:32:49;;;;;;;4.03;0.50;;;11.10;99.90;;;;;;5429639;26;20005;-74
2024/04/24 11:35:18;;;;;;;5.65;0.70;;;11.10;99.90;;;;;;5438968;26;20484;-74
2024/04/24 11:37:45;;;;;;;9.00;0.77;;;11.50;99.90;;;;;;5378810;26;20017;-76
2024/04/24 11:40:11;;;;;;;6.80;0.98;;;12.10;99.90;;;;;;5352392;26;20485;-74
2024/04/24 11:42:43;;;;;;;8.95;1.25;;;12.80;99.90;;;;;;5358595;26;20002;-74
2024/04/24 11:45:10;;;;;;;8.15;1.20;;;13.50;99.90;;;;;;5394894;26;20021;-74
2024/04/24 11:47:36;;;;;;;5.80;0.80;;;13.80;99.90;;;;;;5414032;26;20024;-73
2024/04/24 11:50:04;;;;;;;6.93;1.58;;;13.80;99.90;;;;;;5405810;26;20021;-74
2024/04/24 11:52:38;;;;;;;8.35;2.38;;;13.70;99.90;;;;;;5382378;26;20661;-73
2024/04/24 11:55:06;;;;;;;5.75;1.58;;;14.00;99.90;;;;;;5355087;26;20017;-74
2024/04/24 11:57:39;;;;;;;7.47;1.92;;;14.40;99.90;;;;;;5428697;26;20445;-73
2024/04/24 12:00:07;;;;;;;5.70;0.70;;;14.80;99.90;;;;;;5391679;26;20016;-72
2024/04/24 12:02:36;;;;;;;3.38;0.60;;;15.10;99.90;;;;;;5357541;26;19994;-74
2024/04/24 12:05:04;;;;;;;3.85;0.40;;;15.20;99.90;;;;;;5411332;26;20010;-73
2024/04/24 12:07:32;;;;;;;4.18;1.00;;;15.50;99.90;;;;;;5384297;26;20002;-74
2024/04/24 12:09:59;;;;;;;2.75;0.50;;;15.90;99.90;;;;;;5419899;26;19998;-73
2024/04/24 12:12:26;;;;;;;5.05;1.02;;;16.30;99.90;;;;;;5428675;26;20021;-73
2024/04/24 12:14:55;;;;;;;6.13;0.70;;;16.30;99.90;;;;;;5418260;26;22340;-74
2024/04/24 12:17:22;;;;;;;8.02;1.20;;;16.00;99.90;;;;;;5415116;26;20448;-74
2024/04/24 12:19:48;;;;;;;6.25;0.80;;;16.10;99.90;;;;;;5382430;26;20002;-73
2024/04/24 12:22:15;;;;;;;5.57;0.90;;;16.50;99.90;;;;;;5421956;26;20021;-73
2024/04/24 12:24:42;;;;;;;4.82;0.40;;;17.10;99.90;;;;;;5430205;26;19998;-73
2024/04/24 12:27:09;;;;;;;5.63;0.50;;;17.60;99.90;;;;;;5359127;26;20639;-74
2024/04/24 12:29:35;;;;;;;5.32;0.60;;;18.20;99.90;;;;;;5383879;26;19999;-76
2024/04/24 12:32:03;;;;;;;8.38;0.52;;;18.30;99.90;;;;;;5414176;26;20013;-74
2024/04/24 12:34:29;;;;;;;3.75;0.45;;;18.30;99.90;;;;;;5426881;26;20008;-73
2024/04/24 12:36:56;;;;;;;3.25;0.52;;;18.40;99.90;;;;;;5405084;26;19998;-73
2024/04/24 12:39:22;;;;;;;3.80;0.55;;;18.40;99.90;;;;;;5365622;26;19994;-74
2024/04/24 12:41:49;;;;;;;4.78;1.25;;;18.70;99.90;;;;;;5383988;26;20002;-74
2024/04/24 12:44:15;;;;;;;3.53;0.50;;;18.30;99.90;;;;;;5389573;26;20013;-74
2024/04/24 12:46:42;;;;;;;0.80;0.25;;;17.40;99.90;;;;;;5400616;26;20002;-76
2024/04/24 12:49:08;;;;;;;1.48;0.13;;;16.20;99.90;;;;;;5404219;26;20018;-75
2024/04/24 12:51:36;;;;;;;3.10;0.20;;;14.70;99.90;;;;;;5365084;26;20576;-74
2024/04/24 12:54:02;;;;;;;2.88;0.40;;;14.20;99.90;;;;;;5418560;26;20010;-74
2024/04/24 12:56:29;;;;;;;3.13;0.30;;;14.20;99.90;;;;;;5387327;26;20006;-73
2024/04/24 12:58:55;;;;;;;2.45;0.57;;;14.90;99.90;;;;;;5425034;26;20010;-74